createdAt,value
2023-03-21T00:03:17.643Z,10.01
2023-03-21T00:07:20.516Z,10.02
2023-03-21T00:11:24.625Z,10.03
2023-03-21T00:15:39.880Z,10.04
2023-03-21T00:19:46.854Z,10.06
2023-03-21T00:23:49.538Z,10.08
2023-03-21T00:28:07.498Z,10.10
2023-03-21T00:32:11.195Z,10.10
2023-03-21T00:36:14.323Z,10.13
2023-03-21T00:40:26.709Z,10.12
2023-03-21T00:44:36.965Z,10.12
2023-03-21T00:48:39.665Z,10.10
2023-03-21T00:52:43.447Z,10.14
2023-03-21T00:56:46.187Z,10.15
2023-03-21T01:00:50.564Z,10.18
2023-03-21T01:04:53.975Z,10.19
2023-03-21T01:08:56.889Z,10.23
2023-03-21T01:12:59.612Z,10.24
2023-03-21T01:17:07.130Z,10.24
2023-03-21T01:21:12.364Z,10.25
2023-03-21T01:25:22.405Z,10.26
2023-03-21T01:29:25.624Z,10.25
2023-03-21T01:33:30.606Z,10.25
2023-03-21T01:37:33.790Z,10.26
2023-03-21T01:41:43.316Z,10.21
2023-03-21T01:46:27.325Z,10.20
2023-03-21T01:50:57.275Z,10.22
2023-03-21T01:55:15.874Z,10.28
2023-03-21T01:59:31.544Z,10.29
2023-03-21T02:03:51.225Z,10.30
2023-03-21T02:08:36.750Z,10.26
2023-03-21T02:12:44.951Z,10.20
2023-03-21T02:16:54.871Z,10.18
2023-03-21T02:21:22.878Z,10.20
2023-03-21T02:25:56.569Z,10.18
2023-03-21T02:30:50.878Z,10.12
2023-03-21T02:35:11.717Z,10.12
2023-03-21T02:39:23.770Z,10.08
2023-03-21T02:43:37.203Z,10.06
2023-03-21T02:47:43.719Z,10.06
2023-03-21T02:51:48.610Z,10.04
2023-03-21T02:55:54.980Z,10.00
2023-03-21T03:00:04.939Z,9.94
2023-03-21T03:04:26.620Z,9.92
2023-03-21T03:08:52.872Z,9.90
2023-03-21T03:13:16.981Z,9.90
2023-03-21T03:17:32.714Z,9.91
2023-03-21T03:21:42.225Z,9.90
2023-03-21T03:25:49.083Z,9.90
2023-03-21T03:29:56.034Z,9.90
2023-03-21T03:34:07.515Z,9.90
2023-03-21T03:38:15.195Z,9.87
2023-03-21T03:42:28.418Z,9.84
2023-03-21T03:46:53.691Z,9.84
2023-03-21T03:51:03.495Z,9.80
2023-03-21T03:55:39.063Z,9.80
2023-03-21T03:59:48.043Z,9.81
2023-03-21T04:04:12.914Z,9.78
2023-03-21T04:08:18.067Z,9.78
2023-03-21T04:12:26.764Z,9.83
2023-03-21T04:16:55.583Z,9.79
2023-03-21T04:20:59.756Z,9.78
2023-03-21T04:25:06.042Z,9.75
2023-03-21T04:29:10.076Z,9.78
2023-03-21T04:33:31.153Z,9.78
2023-03-21T04:37:35.664Z,9.78
2023-03-21T04:41:40.037Z,9.81
2023-03-21T04:45:42.849Z,9.82
2023-03-21T04:49:45.714Z,9.84
2023-03-21T04:53:52.443Z,9.84
2023-03-21T04:57:55.565Z,9.86
2023-03-21T05:01:58.667Z,9.82
2023-03-21T05:06:01.590Z,9.82
2023-03-21T05:10:06.921Z,9.88
2023-03-21T05:14:12.613Z,9.84
2023-03-21T05:18:15.287Z,9.89
2023-03-21T05:22:40.316Z,9.83
2023-03-21T05:26:50.621Z,9.82
2023-03-21T05:30:55.050Z,9.86
2023-03-21T05:34:57.964Z,9.88
2023-03-21T05:39:01.840Z,9.88
2023-03-21T05:43:07.273Z,9.89
2023-03-21T05:47:12.120Z,9.81
2023-03-21T05:51:20.043Z,9.87
2023-03-21T05:55:22.966Z,9.87
2023-03-21T05:59:27.679Z,9.89
2023-03-21T06:03:33.023Z,9.90
2023-03-21T06:07:41.680Z,9.93
2023-03-21T06:11:48.501Z,9.89
2023-03-21T06:15:58.375Z,9.88
2023-03-21T06:20:04.821Z,9.87
2023-03-21T06:24:12.239Z,9.84
2023-03-21T06:28:16.635Z,9.85
2023-03-21T06:32:21.376Z,9.81
2023-03-21T06:36:29.326Z,9.83
2023-03-21T06:40:32.189Z,9.83
2023-03-21T06:44:35.081Z,9.84
2023-03-21T06:48:45.288Z,9.89
2023-03-21T06:52:48.423Z,9.92
2023-03-21T06:56:51.857Z,9.89
2023-03-21T07:01:03.034Z,9.93
2023-03-21T07:05:10.347Z,10.00
2023-03-21T07:09:13.366Z,10.04
2023-03-21T07:13:16.226Z,10.05
2023-03-21T07:17:29.013Z,10.08
2023-03-21T07:21:34.624Z,10.07
2023-03-21T07:25:37.840Z,10.02
2023-03-21T07:29:40.972Z,10.06
2023-03-21T07:33:44.321Z,10.06
2023-03-21T07:37:48.478Z,10.07
2023-03-21T07:41:52.742Z,10.12
2023-03-21T07:46:04.688Z,10.16
2023-03-21T07:50:07.949Z,10.19
2023-03-21T07:54:12.102Z,10.20
2023-03-21T07:58:15.002Z,10.27
2023-03-21T08:02:18.812Z,10.27
2023-03-21T08:06:21.749Z,10.30
2023-03-21T08:10:26.536Z,10.31
2023-03-21T08:14:29.313Z,10.37
2023-03-21T08:18:32.093Z,10.39
2023-03-21T08:22:34.914Z,10.44
2023-03-21T08:26:39.169Z,10.50
2023-03-21T08:30:41.917Z,10.54
2023-03-21T08:34:44.612Z,10.61
2023-03-21T08:38:48.560Z,10.65
2023-03-21T08:42:52.618Z,10.75
2023-03-21T08:46:55.698Z,10.82
2023-03-21T08:51:01.337Z,10.89
2023-03-21T08:55:04.521Z,10.98
2023-03-21T08:59:10.034Z,11.08
2023-03-21T09:03:12.772Z,11.21
2023-03-21T09:07:17.966Z,11.27
2023-03-21T09:11:20.810Z,11.36
2023-03-21T09:15:28.841Z,11.45
2023-03-21T09:19:31.941Z,11.47
2023-03-21T09:23:34.664Z,11.54
2023-03-21T09:27:37.849Z,11.57
2023-03-21T09:31:43.929Z,11.54
2023-03-21T09:35:46.848Z,11.48
2023-03-21T09:39:51.324Z,11.46
2023-03-21T09:44:05.052Z,11.45
2023-03-21T09:48:22.456Z,11.46
2023-03-21T09:52:28.958Z,11.43
2023-03-21T09:56:31.800Z,11.46
2023-03-21T10:00:38.898Z,11.37
2023-03-21T10:04:44.122Z,11.35
2023-03-21T10:08:49.461Z,11.37
2023-03-21T10:45:37.009Z,11.50
2023-03-21T11:08:27.258Z,11.71
2023-03-21T11:12:31.616Z,11.77
2023-03-21T11:16:40.510Z,11.73
2023-03-21T11:20:49.555Z,11.72
2023-03-21T11:24:58.366Z,11.69
2023-03-21T11:29:01.879Z,11.74
2023-03-21T11:33:07.681Z,11.81
2023-03-21T11:37:20.782Z,11.88
2023-03-21T11:41:26.519Z,11.97
2023-03-21T11:45:30.920Z,12.08
2023-03-21T11:49:33.777Z,12.07
2023-03-21T11:53:46.614Z,12.08
2023-03-21T11:58:13.463Z,12.23
2023-03-21T12:02:37.752Z,12.27
2023-03-21T12:06:46.814Z,12.41
2023-03-21T12:10:57.076Z,12.47
2023-03-21T12:15:07.156Z,12.54
2023-03-21T12:19:20.873Z,12.53
2023-03-21T12:23:43.668Z,12.60
2023-03-21T12:28:03.657Z,12.70
2023-03-21T12:32:18.707Z,12.71
2023-03-21T12:36:34.125Z,12.69
2023-03-21T12:40:51.719Z,12.68
2023-03-21T12:45:04.097Z,12.71
2023-03-21T12:49:17.702Z,12.69
2023-03-21T12:53:35.558Z,12.82
2023-03-21T12:57:51.098Z,12.87
2023-03-21T13:02:02.774Z,12.94
2023-03-21T13:06:08.351Z,13.06
2023-03-21T13:10:16.008Z,13.11
2023-03-21T13:14:25.042Z,13.19
2023-03-21T13:18:36.617Z,13.30
2023-03-21T13:22:40.795Z,13.45
2023-03-21T13:26:49.796Z,13.40
2023-03-21T13:30:53.143Z,13.37
2023-03-21T13:34:57.189Z,13.43
2023-03-21T13:39:05.555Z,13.47
2023-03-21T13:43:41.001Z,13.43
2023-03-21T13:47:54.389Z,13.41
2023-03-21T13:51:59.033Z,13.34
2023-03-21T13:56:24.025Z,13.22
2023-03-21T14:00:30.404Z,13.12
2023-03-21T14:04:42.691Z,13.16
2023-03-21T14:08:57.201Z,13.21
2023-03-21T14:13:01.918Z,13.22
2023-03-21T14:17:13.120Z,13.21
2023-03-21T14:21:23.790Z,13.25
2023-03-21T14:25:40.951Z,13.21
2023-03-21T14:29:51.380Z,13.20
2023-03-21T14:33:57.759Z,13.26
2023-03-21T14:38:02.198Z,13.23
2023-03-21T14:42:07.376Z,13.24
2023-03-21T14:46:14.369Z,13.26
2023-03-21T14:50:17.144Z,13.33
2023-03-21T14:54:20.681Z,13.43
2023-03-21T14:58:23.432Z,13.55
2023-03-21T15:02:30.257Z,13.73
2023-03-21T15:06:33.128Z,13.87
2023-03-21T15:10:35.874Z,13.98
2023-03-21T15:14:39.056Z,14.06
2023-03-21T15:18:44.458Z,13.99
2023-03-21T15:22:51.484Z,13.98
2023-03-21T15:26:59.004Z,13.98
2023-03-21T15:31:02.046Z,13.95
2023-03-21T15:35:14.302Z,14.10
2023-03-21T15:39:19.810Z,14.26
2023-03-21T15:43:22.505Z,14.23
2023-03-21T15:47:40.542Z,14.14
2023-03-21T15:51:48.570Z,14.11
2023-03-21T15:55:56.860Z,14.08
2023-03-21T16:00:09.105Z,14.00
2023-03-21T16:04:18.350Z,13.97
2023-03-21T16:08:27.304Z,13.97
2023-03-21T16:12:30.401Z,14.00
2023-03-21T16:16:33.250Z,13.97
2023-03-21T16:20:40.972Z,13.99
2023-03-21T16:24:45.148Z,14.00
2023-03-21T16:28:48.214Z,13.98
2023-03-21T16:32:51.523Z,13.96
2023-03-21T16:36:54.276Z,13.96
2023-03-21T16:40:58.399Z,13.93
2023-03-21T16:45:01.210Z,13.93
2023-03-21T16:49:04.367Z,13.94
2023-03-21T16:53:07.098Z,13.82
2023-03-21T16:57:22.979Z,13.73
2023-03-21T17:01:28.211Z,13.68
2023-03-21T17:05:31.610Z,13.62
2023-03-21T17:09:34.303Z,13.55
2023-03-21T17:13:38.327Z,13.45
2023-03-21T17:17:41.408Z,13.39
2023-03-21T17:21:45.722Z,13.32
2023-03-21T17:25:48.425Z,13.28
2023-03-21T17:29:52.540Z,13.24
2023-03-21T17:33:55.333Z,13.23
2023-03-21T17:37:58.656Z,13.26
2023-03-21T17:42:01.487Z,13.28
2023-03-21T17:46:06.564Z,13.27
2023-03-21T17:50:17.581Z,13.25
2023-03-21T17:54:20.566Z,13.20
2023-03-21T17:58:26.182Z,13.17
2023-03-21T18:02:30.782Z,13.09
2023-03-21T18:06:35.186Z,13.03
2023-03-21T18:10:38.418Z,13.07
2023-03-21T18:14:41.297Z,13.02
2023-03-21T18:18:46.787Z,13.01
2023-03-21T18:22:50.998Z,12.99
2023-03-21T18:26:54.516Z,13.01
2023-03-21T18:31:18.891Z,13.02
2023-03-21T18:35:22.361Z,13.02
2023-03-21T18:39:25.095Z,13.01
2023-03-21T18:44:00.755Z,12.97
2023-03-21T18:47:51.411Z,12.94
2023-03-21T18:51:55.737Z,12.95
2023-03-21T18:55:58.530Z,12.96
2023-03-21T19:00:01.845Z,12.89
2023-03-21T19:04:20.850Z,12.86
2023-03-21T19:08:27.178Z,12.82
2023-03-21T19:12:30.409Z,12.81
2023-03-21T19:16:50.679Z,12.74
2023-03-21T19:20:58.544Z,12.72
2023-03-21T19:25:05.471Z,12.64
2023-03-21T19:29:08.518Z,12.51
2023-03-21T19:33:11.414Z,12.36
2023-03-21T19:37:14.073Z,12.26
2023-03-21T19:41:18.525Z,12.13
2023-03-21T19:45:21.539Z,12.05
2023-03-21T19:49:34.722Z,11.97
2023-03-21T19:53:46.884Z,11.91
2023-03-21T19:57:52.265Z,11.84
2023-03-21T20:01:58.553Z,11.77
2023-03-21T20:06:11.443Z,11.75
2023-03-21T20:10:14.401Z,11.70
2023-03-21T20:14:18.492Z,11.65
2023-03-21T20:18:23.940Z,11.61
2023-03-21T20:22:56.137Z,11.58
2023-03-21T20:26:53.476Z,11.55
2023-03-21T20:30:58.289Z,11.46
2023-03-21T20:35:13.666Z,11.40
2023-03-21T20:39:22.098Z,11.37
2023-03-21T20:47:49.621Z,11.26
2023-03-21T20:56:20.596Z,11.25
2023-03-21T21:00:24.610Z,11.29
2023-03-21T21:04:47.232Z,11.34
2023-03-21T21:08:55.480Z,11.36
2023-03-21T21:12:58.311Z,11.38
2023-03-21T21:17:07.699Z,11.41
2023-03-21T21:21:21.584Z,11.38
2023-03-21T21:25:25.197Z,11.38
2023-03-21T21:29:28.364Z,11.28
2023-03-21T21:33:34.266Z,11.25
2023-03-21T21:37:41.770Z,11.19
2023-03-21T21:41:44.692Z,11.10
2023-03-21T21:45:48.002Z,11.03
2023-03-21T21:49:50.673Z,10.98
2023-03-21T21:53:55.873Z,10.91
2023-03-21T21:57:58.961Z,10.87
2023-03-21T22:02:01.735Z,10.83
2023-03-21T22:06:05.141Z,10.83
2023-03-21T22:10:09.883Z,10.84
2023-03-21T22:14:12.760Z,10.87
2023-03-21T22:18:15.489Z,10.87
2023-03-21T22:22:18.269Z,10.88
2023-03-21T22:26:22.423Z,10.89
2023-03-21T22:30:25.234Z,10.90
2023-03-21T22:34:28.322Z,10.88
2023-03-21T22:38:31.012Z,10.85
2023-03-21T22:42:35.239Z,10.86
2023-03-21T22:46:37.975Z,10.85
2023-03-21T22:50:41.933Z,10.86
2023-03-21T22:54:45.832Z,10.83
2023-03-21T22:58:49.880Z,10.79
2023-03-21T23:02:52.581Z,10.76
2023-03-21T23:06:55.690Z,10.76
2023-03-21T23:10:58.494Z,10.72
2023-03-21T23:15:02.658Z,10.73
2023-03-21T23:19:06.132Z,10.73
2023-03-21T23:23:08.797Z,10.74
2023-03-21T23:27:11.499Z,10.75
2023-03-21T23:31:18.260Z,10.78
2023-03-21T23:35:21.010Z,10.79
2023-03-21T23:39:24.394Z,10.80
2023-03-21T23:43:27.495Z,10.82
2023-03-21T23:47:31.492Z,10.83
2023-03-21T23:51:34.197Z,10.86
2023-03-21T23:55:38.773Z,10.86
2023-03-21T23:59:41.512Z,10.84
